sensor_id;sensor_type;location;lat;lon;timestamp;pressure;altitude;pressure_sealevel;temperature;humidity
33185;BME280;19550;42.872;25.494;2022-07-06T00:00:51;96395.19;;;20.71;94.41
33185;BME280;19550;42.872;25.494;2022-07-06T00:03:18;96385.47;;;20.69;92.32
33185;BME280;19550;42.872;25.494;2022-07-06T00:05:45;96390.38;;;20.75;91.65
33185;BME280;19550;42.872;25.494;2022-07-06T00:08:12;96387.59;;;20.79;93.21
33185;BME280;19550;42.872;25.494;2022-07-06T00:10:39;96381.69;;;20.91;92.47
33185;BME280;19550;42.872;25.494;2022-07-06T00:13:07;96381.75;;;20.98;93.29
33185;BME280;19550;42.872;25.494;2022-07-06T00:15:34;96372.47;;;20.97;95.36
33185;BME280;19550;42.872;25.494;2022-07-06T00:18:01;96366.09;;;21.00;97.20
33185;BME280;19550;42.872;25.494;2022-07-06T00:20:28;96367.34;;;21.07;98.31
33185;BME280;19550;42.872;25.494;2022-07-06T00:22:55;96361.66;;;21.03;99.44
33185;BME280;19550;42.872;25.494;2022-07-06T00:25:22;96360.53;;;21.11;100.00
33185;BME280;19550;42.872;25.494;2022-07-06T00:27:49;96352.53;;;21.17;100.00
33185;BME280;19550;42.872;25.494;2022-07-06T00:30:18;96351.34;;;21.18;100.00
33185;BME280;19550;42.872;25.494;2022-07-06T00:32:45;96348.44;;;21.14;100.00
33185;BME280;19550;42.872;25.494;2022-07-06T00:35:12;96342.50;;;21.19;100.00
33185;BME280;19550;42.872;25.494;2022-07-06T00:37:39;96337.16;;;21.11;100.00
33185;BME280;19550;42.872;25.494;2022-07-06T00:40:07;96330.69;;;21.07;100.00
33185;BME280;19550;42.872;25.494;2022-07-06T00:42:39;96332.59;;;20.95;100.00
33185;BME280;19550;42.872;25.494;2022-07-06T00:45:07;96325.25;;;20.84;100.00
33185;BME280;19550;42.872;25.494;2022-07-06T00:47:36;96324.50;;;20.87;100.00
33185;BME280;19550;42.872;25.494;2022-07-06T00:50:04;96330.88;;;20.80;100.00
33185;BME280;19550;42.872;25.494;2022-07-06T00:52:41;96327.50;;;20.64;100.00
33185;BME280;19550;42.872;25.494;2022-07-06T00:55:08;96323.16;;;20.74;100.00
33185;BME280;19550;42.872;25.494;2022-07-06T00:57:36;96322.38;;;20.77;100.00
33185;BME280;19550;42.872;25.494;2022-07-06T01:00:04;96323.25;;;20.84;100.00
33185;BME280;19550;42.872;25.494;2022-07-06T01:02:31;96316.75;;;20.77;100.00
33185;BME280;19550;42.872;25.494;2022-07-06T01:05:01;96312.22;;;20.65;100.00
33185;BME280;19550;42.872;25.494;2022-07-06T01:07:28;96315.34;;;20.56;100.00
33185;BME280;19550;42.872;25.494;2022-07-06T01:09:55;96304.06;;;20.53;100.00
33185;BME280;19550;42.872;25.494;2022-07-06T01:12:23;96308.81;;;20.49;100.00
33185;BME280;19550;42.872;25.494;2022-07-06T01:14:50;96301.25;;;20.53;100.00
33185;BME280;19550;42.872;25.494;2022-07-06T01:17:17;96306.06;;;20.52;100.00
33185;BME280;19550;42.872;25.494;2022-07-06T01:19:45;96301.97;;;20.46;100.00
33185;BME280;19550;42.872;25.494;2022-07-06T01:22:13;96301.94;;;20.43;100.00
33185;BME280;19550;42.872;25.494;2022-07-06T01:24:41;96309.56;;;20.42;100.00
33185;BME280;19550;42.872;25.494;2022-07-06T01:27:08;96296.28;;;20.39;100.00
33185;BME280;19550;42.872;25.494;2022-07-06T01:29:35;96303.59;;;20.47;100.00
33185;BME280;19550;42.872;25.494;2022-07-06T01:32:03;96297.53;;;20.45;100.00
33185;BME280;19550;42.872;25.494;2022-07-06T01:34:30;96295.03;;;20.37;100.00
33185;BME280;19550;42.872;25.494;2022-07-06T01:36:57;96285.81;;;20.40;100.00
33185;BME280;19550;42.872;25.494;2022-07-06T01:39:25;96290.66;;;20.43;100.00
33185;BME280;19550;42.872;25.494;2022-07-06T01:41:52;96283.38;;;20.38;100.00
33185;BME280;19550;42.872;25.494;2022-07-06T01:44:19;96283.28;;;20.31;100.00
33185;BME280;19550;42.872;25.494;2022-07-06T01:46:46;96284.75;;;20.18;100.00
33185;BME280;19550;42.872;25.494;2022-07-06T01:49:13;96279.94;;;20.18;100.00
33185;BME280;19550;42.872;25.494;2022-07-06T01:51:40;96280.69;;;20.15;100.00
33185;BME280;19550;42.872;25.494;2022-07-06T01:54:07;96276.97;;;20.04;100.00
33185;BME280;19550;42.872;25.494;2022-07-06T01:56:36;96278.59;;;20.05;100.00
33185;BME280;19550;42.872;25.494;2022-07-06T01:59:03;96268.44;;;19.97;100.00
33185;BME280;19550;42.872;25.494;2022-07-06T02:01:30;96278.00;;;19.89;100.00
33185;BME280;19550;42.872;25.494;2022-07-06T02:03:57;96277.97;;;19.86;100.00
33185;BME280;19550;42.872;25.494;2022-07-06T02:06:24;96277.41;;;19.73;100.00
33185;BME280;19550;42.872;25.494;2022-07-06T02:08:51;96277.34;;;19.69;100.00
33185;BME280;19550;42.872;25.494;2022-07-06T02:11:19;96273.72;;;19.69;100.00
33185;BME280;19550;42.872;25.494;2022-07-06T02:13:48;96275.41;;;19.73;100.00
33185;BME280;19550;42.872;25.494;2022-07-06T02:16:15;96272.25;;;19.49;100.00
33185;BME280;19550;42.872;25.494;2022-07-06T02:18:42;96278.31;;;19.51;100.00
33185;BME280;19550;42.872;25.494;2022-07-06T02:21:09;96271.06;;;19.50;100.00
33185;BME280;19550;42.872;25.494;2022-07-06T02:23:36;96258.69;;;19.54;100.00
33185;BME280;19550;42.872;25.494;2022-07-06T02:26:03;96268.69;;;19.52;100.00
33185;BME280;19550;42.872;25.494;2022-07-06T02:28:30;96267.97;;;19.58;100.00
33185;BME280;19550;42.872;25.494;2022-07-06T02:30:59;96269.75;;;19.43;100.00
33185;BME280;19550;42.872;25.494;2022-07-06T02:33:26;96265.72;;;19.41;100.00
33185;BME280;19550;42.872;25.494;2022-07-06T02:35:53;96268.38;;;19.30;100.00
33185;BME280;19550;42.872;25.494;2022-07-06T02:38:20;96263.22;;;19.36;100.00
33185;BME280;19550;42.872;25.494;2022-07-06T02:40:47;96258.41;;;19.36;100.00
33185;BME280;19550;42.872;25.494;2022-07-06T02:43:14;96258.75;;;19.31;100.00
33185;BME280;19550;42.872;25.494;2022-07-06T02:45:41;96257.47;;;19.25;100.00
33185;BME280;19550;42.872;25.494;2022-07-06T02:48:09;96252.50;;;19.15;100.00
33185;BME280;19550;42.872;25.494;2022-07-06T02:50:36;96245.59;;;19.09;100.00
33185;BME280;19550;42.872;25.494;2022-07-06T02:53:05;96250.25;;;18.98;100.00
33185;BME280;19550;42.872;25.494;2022-07-06T02:55:32;96255.28;;;18.85;100.00
33185;BME280;19550;42.872;25.494;2022-07-06T02:57:59;96257.31;;;18.88;100.00
33185;BME280;19550;42.872;25.494;2022-07-06T03:00:26;96255.97;;;18.79;100.00
33185;BME280;19550;42.872;25.494;2022-07-06T03:02:53;96258.41;;;18.80;100.00
33185;BME280;19550;42.872;25.494;2022-07-06T03:05:22;96260.44;;;18.83;100.00
33185;BME280;19550;42.872;25.494;2022-07-06T03:07:49;96267.25;;;18.82;100.00
33185;BME280;19550;42.872;25.494;2022-07-06T03:10:16;96262.06;;;18.84;100.00
33185;BME280;19550;42.872;25.494;2022-07-06T03:12:43;96267.69;;;18.84;100.00
33185;BME280;19550;42.872;25.494;2022-07-06T03:15:10;96266.06;;;18.83;100.00
33185;BME280;19550;42.872;25.494;2022-07-06T03:17:38;96265.25;;;18.83;100.00
33185;BME280;19550;42.872;25.494;2022-07-06T03:20:06;96267.44;;;18.93;100.00
33185;BME280;19550;42.872;25.494;2022-07-06T03:22:34;96269.00;;;18.90;100.00
33185;BME280;19550;42.872;25.494;2022-07-06T03:25:01;96265.72;;;18.88;100.00
33185;BME280;19550;42.872;25.494;2022-07-06T03:27:29;96267.69;;;18.84;100.00
33185;BME280;19550;42.872;25.494;2022-07-06T03:29:55;96274.22;;;18.92;100.00
33185;BME280;19550;42.872;25.494;2022-07-06T03:32:22;96271.09;;;18.97;100.00
33185;BME280;19550;42.872;25.494;2022-07-06T03:34:49;96268.34;;;19.00;100.00
33185;BME280;19550;42.872;25.494;2022-07-06T03:37:16;96265.66;;;19.08;100.00
33185;BME280;19550;42.872;25.494;2022-07-06T03:39:45;96274.50;;;19.10;100.00
33185;BME280;19550;42.872;25.494;2022-07-06T03:42:12;96273.47;;;19.21;100.00
33185;BME280;19550;42.872;25.494;2022-07-06T03:44:39;96271.97;;;19.27;100.00
33185;BME280;19550;42.872;25.494;2022-07-06T03:47:06;96274.88;;;19.34;100.00
33185;BME280;19550;42.872;25.494;2022-07-06T03:49:33;96278.31;;;19.51;100.00
33185;BME280;19550;42.872;25.494;2022-07-06T03:52:00;96273.63;;;19.62;100.00
33185;BME280;19550;42.872;25.494;2022-07-06T03:54:27;96274.44;;;19.62;100.00
33185;BME280;19550;42.872;25.494;2022-07-06T03:56:55;96271.31;;;19.67;100.00
33185;BME280;19550;42.872;25.494;2022-07-06T03:59:22;96274.50;;;19.66;100.00
33185;BME280;19550;42.872;25.494;2022-07-06T04:01:49;96273.06;;;19.79;100.00
33185;BME280;19550;42.872;25.494;2022-07-06T04:04:18;96271.25;;;19.97;100.00
33185;BME280;19550;42.872;25.494;2022-07-06T04:06:45;96270.22;;;20.12;100.00
33185;BME280;19550;42.872;25.494;2022-07-06T04:09:12;96275.13;;;20.19;100.00
33185;BME280;19550;42.872;25.494;2022-07-06T04:11:39;96271.56;;;20.26;100.00
33185;BME280;19550;42.872;25.494;2022-07-06T04:14:07;96275.22;;;20.30;100.00
33185;BME280;19550;42.872;25.494;2022-07-06T04:16:34;96269.34;;;20.42;100.00
33185;BME280;19550;42.872;25.494;2022-07-06T04:19:01;96262.16;;;20.48;100.00
33185;BME280;19550;42.872;25.494;2022-07-06T04:21:29;96273.09;;;20.56;100.00
33185;BME280;19550;42.872;25.494;2022-07-06T04:23:56;96281.25;;;20.69;100.00
33185;BME280;19550;42.872;25.494;2022-07-06T04:26:23;96270.03;;;20.76;100.00
33185;BME280;19550;42.872;25.494;2022-07-06T04:28:50;96268.97;;;20.91;100.00
33185;BME280;19550;42.872;25.494;2022-07-06T04:31:18;96271.41;;;20.96;100.00
33185;BME280;19550;42.872;25.494;2022-07-06T04:33:45;96275.03;;;20.96;100.00
33185;BME280;19550;42.872;25.494;2022-07-06T04:36:12;96286.44;;;21.14;100.00
33185;BME280;19550;42.872;25.494;2022-07-06T04:38:39;96295.44;;;21.27;100.00
33185;BME280;19550;42.872;25.494;2022-07-06T04:41:06;96297.97;;;21.46;100.00
33185;BME280;19550;42.872;25.494;2022-07-06T04:43:33;96295.53;;;21.48;100.00
33185;BME280;19550;42.872;25.494;2022-07-06T04:46:00;96295.59;;;21.52;100.00
33185;BME280;19550;42.872;25.494;2022-07-06T04:48:29;96291.25;;;21.72;100.00
33185;BME280;19550;42.872;25.494;2022-07-06T04:50:57;96292.91;;;21.80;100.00
33185;BME280;19550;42.872;25.494;2022-07-06T04:53:25;96290.94;;;21.95;100.00
33185;BME280;19550;42.872;25.494;2022-07-06T04:55:52;96289.41;;;22.08;99.80
33185;BME280;19550;42.872;25.494;2022-07-06T04:58:19;96287.03;;;22.17;99.60
33185;BME280;19550;42.872;25.494;2022-07-06T05:00:46;96286.25;;;22.41;98.73
33185;BME280;19550;42.872;25.494;2022-07-06T05:03:13;96285.50;;;22.55;97.96
33185;BME280;19550;42.872;25.494;2022-07-06T05:05:41;96285.09;;;22.56;96.96
33185;BME280;19550;42.872;25.494;2022-07-06T05:08:08;96281.50;;;22.67;96.85
33185;BME280;19550;42.872;25.494;2022-07-06T05:10:35;96287.16;;;22.84;96.43
33185;BME280;19550;42.872;25.494;2022-07-06T05:13:02;96293.63;;;22.99;95.90
33185;BME280;19550;42.872;25.494;2022-07-06T05:15:29;96292.41;;;22.96;94.88
33185;BME280;19550;42.872;25.494;2022-07-06T05:17:56;96303.31;;;22.94;95.06
33185;BME280;19550;42.872;25.494;2022-07-06T05:20:23;96301.31;;;22.98;94.88
33185;BME280;19550;42.872;25.494;2022-07-06T05:22:51;96307.34;;;23.15;93.80
33185;BME280;19550;42.872;25.494;2022-07-06T05:25:18;96304.53;;;23.25;92.00
33185;BME280;19550;42.872;25.494;2022-07-06T05:27:45;96303.72;;;23.39;92.69
33185;BME280;19550;42.872;25.494;2022-07-06T05:30:13;96315.44;;;23.48;89.10
33185;BME280;19550;42.872;25.494;2022-07-06T05:32:41;96314.63;;;23.58;89.80
33185;BME280;19550;42.872;25.494;2022-07-06T05:35:08;96318.22;;;23.62;88.48
33185;BME280;19550;42.872;25.494;2022-07-06T05:37:35;96315.78;;;23.71;87.98
33185;BME280;19550;42.872;25.494;2022-07-06T05:40:04;96326.72;;;23.62;88.53
33185;BME280;19550;42.872;25.494;2022-07-06T05:42:32;96324.28;;;23.71;88.34
33185;BME280;19550;42.872;25.494;2022-07-06T05:44:59;96329.13;;;23.74;89.46
33185;BME280;19550;42.872;25.494;2022-07-06T05:47:26;96330.72;;;23.75;90.30
33185;BME280;19550;42.872;25.494;2022-07-06T05:50:10;96341.25;;;23.75;88.83
33185;BME280;19550;42.872;25.494;2022-07-06T05:52:40;96342.88;;;23.72;88.26
33185;BME280;19550;42.872;25.494;2022-07-06T05:55:09;96348.56;;;23.65;89.33
33185;BME280;19550;42.872;25.494;2022-07-06T05:57:36;96336.84;;;23.56;89.96
33185;BME280;19550;42.872;25.494;2022-07-06T06:00:05;96342.09;;;23.36;90.41
33185;BME280;19550;42.872;25.494;2022-07-06T06:02:40;96332.41;;;23.30;92.35
33185;BME280;19550;42.872;25.494;2022-07-06T06:05:08;96335.63;;;23.43;92.15
33185;BME280;19550;42.872;25.494;2022-07-06T06:07:36;96340.06;;;23.30;91.36
33185;BME280;19550;42.872;25.494;2022-07-06T06:10:05;96341.31;;;23.32;92.18
33185;BME280;19550;42.872;25.494;2022-07-06T06:12:34;96343.31;;;23.35;91.46
33185;BME280;19550;42.872;25.494;2022-07-06T06:15:01;96348.16;;;23.42;91.25
33185;BME280;19550;42.872;25.494;2022-07-06T06:17:29;96344.50;;;23.42;91.34
33185;BME280;19550;42.872;25.494;2022-07-06T06:19:56;96349.78;;;23.29;91.89
33185;BME280;19550;42.872;25.494;2022-07-06T06:22:23;96342.91;;;23.12;92.61
33185;BME280;19550;42.872;25.494;2022-07-06T06:24:51;96343.72;;;23.16;93.81
33185;BME280;19550;42.872;25.494;2022-07-06T06:27:18;96346.13;;;23.21;92.29
33185;BME280;19550;42.872;25.494;2022-07-06T06:29:47;96350.97;;;23.28;91.96
33185;BME280;19550;42.872;25.494;2022-07-06T06:32:14;96351.00;;;23.38;91.86
33185;BME280;19550;42.872;25.494;2022-07-06T06:34:41;96346.53;;;23.62;90.52
33185;BME280;19550;42.872;25.494;2022-07-06T06:37:08;96346.09;;;23.78;89.23
33185;BME280;19550;42.872;25.494;2022-07-06T06:39:35;96350.88;;;24.02;87.38
33185;BME280;19550;42.872;25.494;2022-07-06T06:42:02;96352.88;;;24.12;87.25
33185;BME280;19550;42.872;25.494;2022-07-06T06:44:29;96348.00;;;24.16;87.92
33185;BME280;19550;42.872;25.494;2022-07-06T06:46:57;96349.22;;;24.23;87.01
33185;BME280;19550;42.872;25.494;2022-07-06T06:49:24;96352.88;;;24.20;87.08
33185;BME280;19550;42.872;25.494;2022-07-06T06:51:51;96357.72;;;24.15;86.43
33185;BME280;19550;42.872;25.494;2022-07-06T06:54:18;96351.75;;;23.85;86.81
33185;BME280;19550;42.872;25.494;2022-07-06T06:56:45;96342.44;;;23.88;89.01
33185;BME280;19550;42.872;25.494;2022-07-06T06:59:12;96345.25;;;23.95;89.03
33185;BME280;19550;42.872;25.494;2022-07-06T07:01:39;96350.06;;;24.02;88.41
33185;BME280;19550;42.872;25.494;2022-07-06T07:04:08;96346.06;;;23.99;90.47
33185;BME280;19550;42.872;25.494;2022-07-06T07:06:35;96350.47;;;24.00;90.21
33185;BME280;19550;42.872;25.494;2022-07-06T07:09:02;96344.06;;;23.86;89.29
33185;BME280;19550;42.872;25.494;2022-07-06T07:11:30;96346.88;;;23.89;89.38
33185;BME280;19550;42.872;25.494;2022-07-06T07:13:58;96348.09;;;23.81;90.63
33185;BME280;19550;42.872;25.494;2022-07-06T07:16:26;96342.06;;;23.75;90.20
33185;BME280;19550;42.872;25.494;2022-07-06T07:18:53;96355.00;;;23.84;90.43
33185;BME280;19550;42.872;25.494;2022-07-06T07:21:21;96353.34;;;23.97;90.27
33185;BME280;19550;42.872;25.494;2022-07-06T07:23:48;96346.06;;;23.89;90.27
33185;BME280;19550;42.872;25.494;2022-07-06T07:26:16;96358.94;;;24.07;89.42
33185;BME280;19550;42.872;25.494;2022-07-06T07:28:43;96358.13;;;24.17;86.55
33185;BME280;19550;42.872;25.494;2022-07-06T07:31:10;96356.53;;;24.09;87.19
33185;BME280;19550;42.872;25.494;2022-07-06T07:33:38;96356.59;;;23.88;88.44
33185;BME280;19550;42.872;25.494;2022-07-06T07:36:05;96359.41;;;23.92;88.46
33185;BME280;19550;42.872;25.494;2022-07-06T07:38:33;96353.34;;;23.90;89.58
33185;BME280;19550;42.872;25.494;2022-07-06T07:41:00;96349.31;;;23.80;89.60
33185;BME280;19550;42.872;25.494;2022-07-06T07:43:27;96350.91;;;23.88;90.79
33185;BME280;19550;42.872;25.494;2022-07-06T07:45:54;96349.69;;;23.96;90.54
33185;BME280;19550;42.872;25.494;2022-07-06T07:48:21;96352.53;;;23.89;89.92
33185;BME280;19550;42.872;25.494;2022-07-06T07:50:48;96351.34;;;23.76;94.72
33185;BME280;19550;42.872;25.494;2022-07-06T07:53:15;96350.56;;;23.75;92.67
33185;BME280;19550;42.872;25.494;2022-07-06T07:55:44;96355.03;;;23.62;92.13
33185;BME280;19550;42.872;25.494;2022-07-06T07:58:11;96361.50;;;23.70;91.27
33185;BME280;19550;42.872;25.494;2022-07-06T08:00:38;96362.25;;;23.81;91.56
33185;BME280;19550;42.872;25.494;2022-07-06T08:03:05;96363.88;;;23.86;90.96
33185;BME280;19550;42.872;25.494;2022-07-06T08:05:32;96357.75;;;24.01;90.35
33185;BME280;19550;42.872;25.494;2022-07-06T08:07:59;96354.06;;;24.26;88.43
33185;BME280;19550;42.872;25.494;2022-07-06T08:10:26;96355.56;;;24.48;87.49
33185;BME280;19550;42.872;25.494;2022-07-06T08:12:54;96357.50;;;24.69;84.34
33185;BME280;19550;42.872;25.494;2022-07-06T08:15:21;96365.94;;;24.76;83.87
33185;BME280;19550;42.872;25.494;2022-07-06T08:17:48;96364.78;;;24.70;85.04
33185;BME280;19550;42.872;25.494;2022-07-06T08:20:15;96368.44;;;24.67;83.69
33185;BME280;19550;42.872;25.494;2022-07-06T08:22:42;96368.09;;;24.54;83.44
33185;BME280;19550;42.872;25.494;2022-07-06T08:25:10;96368.44;;;24.67;85.22
33185;BME280;19550;42.872;25.494;2022-07-06T08:27:37;96366.16;;;24.37;85.74
33185;BME280;19550;42.872;25.494;2022-07-06T08:30:07;96367.03;;;24.16;86.56
33185;BME280;19550;42.872;25.494;2022-07-06T08:32:37;96370.25;;;24.32;86.01
33185;BME280;19550;42.872;25.494;2022-07-06T08:35:04;96366.97;;;24.34;85.49
33185;BME280;19550;42.872;25.494;2022-07-06T08:37:31;96370.13;;;24.57;84.88
33185;BME280;19550;42.872;25.494;2022-07-06T08:39:58;96366.00;;;24.69;83.52
33185;BME280;19550;42.872;25.494;2022-07-06T08:42:29;96368.72;;;24.86;83.85
33185;BME280;19550;42.872;25.494;2022-07-06T08:44:58;96362.88;;;25.15;83.18
33185;BME280;19550;42.872;25.494;2022-07-06T08:47:27;96359.06;;;25.36;82.78
33185;BME280;19550;42.872;25.494;2022-07-06T08:49:55;96360.88;;;25.63;81.36
33185;BME280;19550;42.872;25.494;2022-07-06T08:52:23;96366.56;;;26.01;81.53
33185;BME280;19550;42.872;25.494;2022-07-06T08:54:50;96370.63;;;26.00;79.37
33185;BME280;19550;42.872;25.494;2022-07-06T08:57:17;96383.81;;;25.83;79.45
33185;BME280;19550;42.872;25.494;2022-07-06T08:59:44;96381.22;;;25.58;81.29
33185;BME280;19550;42.872;25.494;2022-07-06T09:02:13;96380.19;;;25.31;83.21
33185;BME280;19550;42.872;25.494;2022-07-06T09:04:42;96382.75;;;25.15;84.51
33185;BME280;19550;42.872;25.494;2022-07-06T09:07:09;96386.13;;;24.88;87.23
33185;BME280;19550;42.872;25.494;2022-07-06T09:09:37;96386.69;;;24.66;87.64
33185;BME280;19550;42.872;25.494;2022-07-06T09:12:11;96383.09;;;24.47;91.34
33185;BME280;19550;42.872;25.494;2022-07-06T09:14:39;96389.75;;;23.98;92.01
33185;BME280;19550;42.872;25.494;2022-07-06T09:17:06;96390.53;;;23.95;93.31
33185;BME280;19550;42.872;25.494;2022-07-06T09:19:34;96384.91;;;23.92;95.04
33185;BME280;19550;42.872;25.494;2022-07-06T09:22:03;96378.41;;;23.98;97.24
33185;BME280;19550;42.872;25.494;2022-07-06T09:24:31;96386.16;;;23.45;100.00
33185;BME280;19550;42.872;25.494;2022-07-06T09:26:59;96383.75;;;23.47;100.00
33185;BME280;19550;42.872;25.494;2022-07-06T09:29:30;96385.34;;;23.48;100.00
33185;BME280;19550;42.872;25.494;2022-07-06T09:31:58;96387.78;;;23.56;100.00
33185;BME280;19550;42.872;25.494;2022-07-06T09:34:25;96387.38;;;23.65;100.00
33185;BME280;19550;42.872;25.494;2022-07-06T09:36:52;96389.00;;;23.59;99.94
33185;BME280;19550;42.872;25.494;2022-07-06T09:39:23;96389.00;;;23.66;100.00
33185;BME280;19550;42.872;25.494;2022-07-06T09:41:51;96392.59;;;23.88;100.00
33185;BME280;19550;42.872;25.494;2022-07-06T09:44:20;96401.06;;;23.98;98.27
33185;BME280;19550;42.872;25.494;2022-07-06T09:46:48;96384.94;;;23.77;93.87
33185;BME280;19550;42.872;25.494;2022-07-06T09:49:17;96393.81;;;23.76;95.14
33185;BME280;19550;42.872;25.494;2022-07-06T09:51:44;96394.59;;;23.98;92.19
33185;BME280;19550;42.872;25.494;2022-07-06T09:54:12;96389.28;;;24.07;90.17
33185;BME280;19550;42.872;25.494;2022-07-06T09:56:41;96391.38;;;23.92;89.62
33185;BME280;19550;42.872;25.494;2022-07-06T09:59:08;96388.16;;;23.83;89.39
33185;BME280;19550;42.872;25.494;2022-07-06T10:01:36;96392.16;;;23.96;90.04
33185;BME280;19550;42.872;25.494;2022-07-06T10:04:03;96386.44;;;24.21;88.24
33185;BME280;19550;42.872;25.494;2022-07-06T10:06:31;96384.00;;;24.30;86.88
33185;BME280;19550;42.872;25.494;2022-07-06T10:08:59;96384.78;;;24.34;87.23
33185;BME280;19550;42.872;25.494;2022-07-06T10:11:28;96382.50;;;24.91;84.38
33185;BME280;19550;42.872;25.494;2022-07-06T10:13:57;96378.59;;;25.30;80.56
33185;BME280;19550;42.872;25.494;2022-07-06T10:16:25;96382.28;;;25.20;81.29
33185;BME280;19550;42.872;25.494;2022-07-06T10:18:52;96376.16;;;25.28;79.34
33185;BME280;19550;42.872;25.494;2022-07-06T10:21:21;96377.09;;;25.11;79.98
33185;BME280;19550;42.872;25.494;2022-07-06T10:23:48;96377.25;;;24.90;80.87
33185;BME280;19550;42.872;25.494;2022-07-06T10:26:16;96374.97;;;25.26;79.80
33185;BME280;19550;42.872;25.494;2022-07-06T10:28:44;96380.09;;;25.42;78.53
33185;BME280;19550;42.872;25.494;2022-07-06T10:31:15;96380.03;;;25.52;77.89
33185;BME280;19550;42.872;25.494;2022-07-06T10:33:42;96379.00;;;25.77;78.25
33185;BME280;19550;42.872;25.494;2022-07-06T10:36:11;96374.66;;;26.06;77.82
33185;BME280;19550;42.872;25.494;2022-07-06T10:38:38;96379.78;;;25.81;76.98
33185;BME280;19550;42.872;25.494;2022-07-06T10:41:07;96370.75;;;25.89;77.35
33185;BME280;19550;42.872;25.494;2022-07-06T10:43:34;96367.03;;;25.58;78.67
33185;BME280;19550;42.872;25.494;2022-07-06T10:46:08;96373.47;;;25.62;78.17
33185;BME280;19550;42.872;25.494;2022-07-06T10:48:38;96373.66;;;25.34;79.47
33185;BME280;19550;42.872;25.494;2022-07-06T10:51:05;96368.00;;;25.34;78.84
33185;BME280;19550;42.872;25.494;2022-07-06T10:53:35;96362.44;;;25.71;79.21
33185;BME280;19550;42.872;25.494;2022-07-06T10:56:05;96351.44;;;25.73;77.98
33185;BME280;19550;42.872;25.494;2022-07-06T10:58:47;96352.41;;;25.97;78.48
33185;BME280;19550;42.872;25.494;2022-07-06T11:01:17;96348.06;;;26.23;76.10
33185;BME280;19550;42.872;25.494;2022-07-06T11:03:48;96357.31;;;26.65;75.29
33185;BME280;19550;42.872;25.494;2022-07-06T11:06:17;96351.13;;;26.70;73.44
33185;BME280;19550;42.872;25.494;2022-07-06T11:08:48;96347.94;;;27.21;73.71
33185;BME280;19550;42.872;25.494;2022-07-06T11:11:17;96350.88;;;27.18;71.77
33185;BME280;19550;42.872;25.494;2022-07-06T11:13:55;96351.56;;;27.25;72.76
33185;BME280;19550;42.872;25.494;2022-07-06T11:16:24;96354.63;;;27.61;70.11
33185;BME280;19550;42.872;25.494;2022-07-06T11:19:11;96350.94;;;27.64;69.06
33185;BME280;19550;42.872;25.494;2022-07-06T11:21:43;96351.56;;;27.25;69.37
33185;BME280;19550;42.872;25.494;2022-07-06T11:24:12;96344.38;;;27.41;71.29
33185;BME280;19550;42.872;25.494;2022-07-06T11:26:39;96352.13;;;27.87;69.52
33185;BME280;19550;42.872;25.494;2022-07-06T11:29:09;96346.13;;;28.04;67.11
33185;BME280;19550;42.872;25.494;2022-07-06T11:31:38;96349.41;;;27.80;67.36
33185;BME280;19550;42.872;25.494;2022-07-06T11:34:06;96343.88;;;27.92;68.03
33185;BME280;19550;42.872;25.494;2022-07-06T11:36:35;96346.13;;;28.04;68.72
33185;BME280;19550;42.872;25.494;2022-07-06T11:39:04;96337.84;;;27.90;68.21
33185;BME280;19550;42.872;25.494;2022-07-06T11:41:32;96352.81;;;27.94;69.53
33185;BME280;19550;42.872;25.494;2022-07-06T11:43:59;96350.50;;;27.39;71.04
33185;BME280;19550;42.872;25.494;2022-07-06T11:46:27;96348.44;;;27.16;70.37
33185;BME280;19550;42.872;25.494;2022-07-06T11:48:56;96355.19;;;27.26;69.98
33185;BME280;19550;42.872;25.494;2022-07-06T11:51:24;96353.53;;;27.02;70.43
33185;BME280;19550;42.872;25.494;2022-07-06T11:53:55;96344.47;;;27.10;70.72
33185;BME280;19550;42.872;25.494;2022-07-06T11:56:23;96346.63;;;27.03;70.09
33185;BME280;19550;42.872;25.494;2022-07-06T11:58:53;96348.22;;;26.73;71.86
33185;BME280;19550;42.872;25.494;2022-07-06T12:01:21;96350.00;;;26.64;71.95
33185;BME280;19550;42.872;25.494;2022-07-06T12:03:49;96355.22;;;26.38;73.47
33185;BME280;19550;42.872;25.494;2022-07-06T12:06:18;96347.97;;;25.96;75.39
33185;BME280;19550;42.872;25.494;2022-07-06T12:08:47;96351.44;;;25.73;75.75
33185;BME280;19550;42.872;25.494;2022-07-06T12:11:23;96351.25;;;25.47;77.34
33185;BME280;19550;42.872;25.494;2022-07-06T12:13:52;96351.84;;;25.27;77.97
33185;BME280;19550;42.872;25.494;2022-07-06T12:16:20;96349.16;;;25.10;78.62
33185;BME280;19550;42.872;25.494;2022-07-06T12:18:49;96340.59;;;25.13;80.85
33185;BME280;19550;42.872;25.494;2022-07-06T12:21:18;96345.41;;;25.20;80.84
33185;BME280;19550;42.872;25.494;2022-07-06T12:23:49;96339.25;;;25.28;80.23
33185;BME280;19550;42.872;25.494;2022-07-06T12:26:19;96329.19;;;25.24;79.19
33185;BME280;19550;42.872;25.494;2022-07-06T12:29:00;96333.47;;;25.43;81.10
33185;BME280;19550;42.872;25.494;2022-07-06T12:31:32;96320.59;;;25.31;79.35
33185;BME280;19550;42.872;25.494;2022-07-06T12:33:59;96321.94;;;25.19;80.13
33185;BME280;19550;42.872;25.494;2022-07-06T12:36:26;96322.84;;;25.06;81.45
33185;BME280;19550;42.872;25.494;2022-07-06T12:38:54;96320.44;;;25.01;81.11
33185;BME280;19550;42.872;25.494;2022-07-06T12:41:43;96315.44;;;25.19;81.23
33185;BME280;19550;42.872;25.494;2022-07-06T12:44:12;96319.50;;;25.14;82.78
33185;BME280;19550;42.872;25.494;2022-07-06T12:46:41;96306.28;;;25.45;80.65
33185;BME280;19550;42.872;25.494;2022-07-06T12:49:13;96308.66;;;25.50;80.73